Time;durP1;ratioP1;P1;durP2;ratioP2;P2;SDS_P1;SDS_P2;PMS_P1;PMS_P2;Temp;Humidity;BMP_temperature;BMP_pressure;BME280_temperature;BME280_humidity;BME280_pressure;Samples;Min_cycle;Max_cycle;Signal;HPM_P1;HPM_P2
2022/05/15 00:01:11;;;;;;;0.90;0.90;;;;;;;14.73;59.83;98873.56;4103604;28;20253;-57
2022/05/15 00:03:24;;;;;;;1.40;1.10;;;;;;;14.69;59.69;98866.13;4119903;28;20638;-55
2022/05/15 00:05:25;;;;;;;1.00;1.00;;;;;;;14.64;59.67;98869.66;4106464;28;20551;-55
2022/05/15 00:07:27;;;;;;;1.27;1.10;;;;;;;14.61;59.61;98874.88;4105501;28;20239;-56
2022/05/15 00:09:29;;;;;;;2.53;0.80;;;;;;;14.57;59.69;98869.06;4111216;28;20219;-56
2022/05/15 00:11:30;;;;;;;1.30;1.20;;;;;;;14.54;60.01;98864.09;4108900;28;20234;-57
2022/05/15 00:13:32;;;;;;;1.20;1.10;;;;;;;14.51;59.79;98859.09;4107507;28;20223;-59
2022/05/15 00:15:34;;;;;;;0.90;0.90;;;;;;;14.53;59.59;98862.44;4127102;28;20297;-56
2022/05/15 00:17:36;;;;;;;0.90;0.90;;;;;;;14.49;59.98;98858.56;4126632;28;20214;-55
2022/05/15 00:19:38;;;;;;;1.00;1.00;;;;;;;14.52;59.83;98854.44;4112267;28;20217;-55
2022/05/15 00:21:40;;;;;;;1.17;1.08;;;;;;;14.51;59.95;98848.09;4108796;28;20815;-56
2022/05/15 00:23:42;;;;;;;1.00;1.00;;;;;;;14.39;60.61;98850.25;4127062;28;20579;-57
2022/05/15 00:25:44;;;;;;;0.90;0.90;;;;;;;14.33;60.56;98848.56;4123168;28;20683;-58
2022/05/15 00:27:47;;;;;;;1.05;0.98;;;;;;;14.13;61.12;98853.91;4106796;28;20210;-56
2022/05/15 00:29:49;;;;;;;0.93;0.88;;;;;;;14.17;61.49;98857.75;4093487;28;20336;-56
2022/05/15 00:31:51;;;;;;;1.60;1.50;;;;;;;14.22;61.10;98854.28;4108910;28;20234;-57
2022/05/15 00:33:53;;;;;;;1.20;0.93;;;;;;;14.22;61.05;98849.59;4108152;28;20231;-55
2022/05/15 00:35:54;;;;;;;1.23;1.13;;;;;;;14.19;61.06;98852.88;4127725;28;20611;-56
2022/05/15 00:37:56;;;;;;;1.42;1.23;;;;;;;14.17;61.02;98846.75;4111911;28;20214;-55
2022/05/15 00:39:58;;;;;;;1.58;1.48;;;;;;;14.17;61.15;98851.44;4124515;28;20604;-58
2022/05/15 00:42:00;;;;;;;1.05;1.00;;;;;;;14.21;61.13;98855.34;4109984;28;20231;-55
2022/05/15 00:44:01;;;;;;;1.02;1.00;;;;;;;14.20;61.13;98850.94;4093705;28;20287;-59
2022/05/15 00:46:06;;;;;;;1.30;1.15;;;;;;;14.18;61.14;98842.94;4124519;28;20662;-55
2022/05/15 00:48:08;;;;;;;1.15;1.05;;;;;;;14.13;61.18;98842.06;4124923;28;20213;-56
2022/05/15 00:50:17;;;;;;;1.48;1.48;;;;;;;14.13;60.98;98834.63;4125685;28;20234;-55
2022/05/15 00:52:24;;;;;;;1.25;1.15;;;;;;;14.13;60.81;98842.06;4125872;28;20281;-55
2022/05/15 00:54:32;;;;;;;5.50;1.45;;;;;;;14.08;61.23;98847.50;4124681;28;20695;-54
2022/05/15 00:56:38;;;;;;;1.40;1.30;;;;;;;14.03;61.25;98850.25;4124048;28;20253;-55
2022/05/15 00:58:42;;;;;;;1.63;1.52;;;;;;;13.94;61.82;98851.81;4120687;28;20606;-58
2022/05/15 01:00:44;;;;;;;1.88;1.42;;;;;;;13.88;61.62;98853.69;4103002;28;20234;-58
2022/05/15 01:03:12;;;;;;;4.68;1.45;;;;;;;13.77;62.03;98851.94;4106855;28;20631;-56
2022/05/15 01:05:15;;;;;;;1.38;1.25;;;;;;;13.67;62.34;98849.13;4108856;28;20199;-54
2022/05/15 01:07:17;;;;;;;1.20;1.17;;;;;;;13.57;62.64;98846.28;4120695;28;20261;-58
2022/05/15 01:09:19;;;;;;;1.42;1.33;;;;;;;13.60;62.41;98851.25;4120400;28;20228;-56
2022/05/15 01:11:21;;;;;;;1.70;1.48;;;;;;;13.63;61.97;98845.22;4119693;28;20237;-57
2022/05/15 01:13:24;;;;;;;2.00;1.90;;;;;;;13.67;62.01;98846.38;4089850;28;20231;-55
2022/05/15 01:15:27;;;;;;;1.60;1.50;;;;;;;13.72;61.68;98846.44;4122406;28;20233;-54
2022/05/15 01:17:29;;;;;;;1.60;1.13;;;;;;;13.70;61.76;98845.84;4125496;28;20699;-56
2022/05/15 01:19:33;;;;;;;1.80;1.20;;;;;;;13.71;61.48;98842.00;4108879;28;20565;-55
2022/05/15 01:21:51;;;;;;;1.48;1.38;;;;;;;13.63;61.74;98839.72;4123679;28;20278;-56
2022/05/15 01:23:52;;;;;;;1.30;1.20;;;;;;;13.60;61.89;98845.75;4123165;28;20253;-56
2022/05/15 01:25:56;;;;;;;1.00;1.00;;;;;;;13.55;62.14;98837.47;4106894;28;20210;-55
2022/05/15 01:28:05;;;;;;;1.02;1.00;;;;;;;13.55;61.68;98842.97;4126106;28;20214;-55
2022/05/15 01:30:07;;;;;;;1.30;1.20;;;;;;;13.54;61.65;98846.81;4128455;28;20592;-55
2022/05/15 01:32:10;;;;;;;2.58;1.63;;;;;;;13.46;62.32;98841.78;4127179;28;20916;-55
2022/05/15 01:34:12;;;;;;;1.17;1.10;;;;;;;13.42;62.33;98842.53;4114450;28;20203;-55
2022/05/15 01:36:14;;;;;;;1.63;1.52;;;;;;;13.40;62.38;98834.56;4125711;28;21434;-55
2022/05/15 01:38:18;;;;;;;1.40;1.30;;;;;;;13.40;62.14;98842.81;4109519;28;20202;-55
2022/05/15 01:40:20;;;;;;;1.38;1.27;;;;;;;13.43;62.35;98833.22;4107243;28;20305;-55
2022/05/15 01:42:22;;;;;;;1.08;1.05;;;;;;;13.44;61.89;98843.94;4108602;28;20218;-55
2022/05/15 01:44:24;;;;;;;1.55;1.38;;;;;;;13.43;62.03;98839.53;4106491;28;20653;-55
2022/05/15 01:46:28;;;;;;;2.38;1.75;;;;;;;13.43;61.78;98845.03;4111175;28;20211;-55
2022/05/15 01:48:30;;;;;;;1.10;1.10;;;;;;;13.42;62.10;98851.63;4126435;28;20217;-55
2022/05/15 01:50:32;;;;;;;1.10;0.98;;;;;;;13.41;62.05;98847.22;4124553;28;20237;-56
2022/05/15 01:52:35;;;;;;;1.50;1.40;;;;;;;13.40;61.95;98845.56;4108550;28;20211;-55
2022/05/15 01:54:36;;;;;;;1.30;1.20;;;;;;;13.40;61.57;98848.31;4126294;28;20210;-58
2022/05/15 01:56:38;;;;;;;1.60;1.50;;;;;;;13.38;61.90;98844.97;4109365;28;20211;-55
2022/05/15 01:58:40;;;;;;;1.40;1.30;;;;;;;13.34;61.80;98848.50;4111703;28;20211;-55
2022/05/15 02:00:42;;;;;;;1.70;1.60;;;;;;;13.31;62.07;98855.34;4107123;28;20238;-54
2022/05/15 02:02:44;;;;;;;2.38;1.60;;;;;;;13.29;62.27;98852.03;4108834;28;20688;-54
2022/05/15 02:04:45;;;;;;;1.33;1.23;;;;;;;13.22;62.43;98843.19;4123831;28;20206;-54
2022/05/15 02:06:47;;;;;;;1.70;1.60;;;;;;;13.15;62.73;98844.47;4109700;28;20209;-54
2022/05/15 02:08:49;;;;;;;1.33;1.10;;;;;;;13.12;62.88;98842.25;4105971;28;20218;-55
2022/05/15 02:10:51;;;;;;;6.00;1.75;;;;;;;13.10;62.67;98841.69;4105688;28;20230;-55
2022/05/15 02:12:52;;;;;;;1.35;1.25;;;;;;;13.10;62.57;98845.25;4120863;28;20231;-55
2022/05/15 02:14:57;;;;;;;1.80;1.55;;;;;;;13.04;62.58;98838.03;4123248;28;20236;-55
2022/05/15 02:16:59;;;;;;;1.38;1.27;;;;;;;13.01;62.75;98830.31;4123112;28;21453;-55
2022/05/15 02:19:06;;;;;;;1.48;1.33;;;;;;;12.99;62.43;98832.50;4109737;28;20233;-54
2022/05/15 02:21:08;;;;;;;1.20;1.20;;;;;;;13.02;62.49;98836.63;4107465;28;20262;-55
2022/05/15 02:23:10;;;;;;;1.20;1.05;;;;;;;12.97;62.45;98842.91;4105746;28;20214;-55
2022/05/15 02:25:13;;;;;;;1.67;1.30;;;;;;;12.91;62.81;98838.41;4119415;28;20680;-54
2022/05/15 02:27:15;;;;;;;1.23;1.10;;;;;;;12.88;62.99;98835.34;4120188;28;20237;-55
2022/05/15 02:29:17;;;;;;;1.40;1.30;;;;;;;12.85;63.11;98825.69;4101998;28;20209;-55
2022/05/15 02:31:18;;;;;;;1.75;1.65;;;;;;;12.86;62.86;98826.53;4105631;28;20650;-55
2022/05/15 02:33:20;;;;;;;1.13;1.10;;;;;;;12.87;62.85;98820.78;4105825;28;20318;-55
2022/05/15 02:35:22;;;;;;;1.58;1.30;;;;;;;12.86;62.67;98816.38;4123652;28;20672;-55
2022/05/15 02:37:24;;;;;;;1.27;1.17;;;;;;;12.88;62.97;98830.69;4123524;28;20210;-55
2022/05/15 02:39:25;;;;;;;1.58;1.10;;;;;;;12.89;62.87;98829.59;4107675;28;20206;-55
2022/05/15 02:41:27;;;;;;;1.85;1.58;;;;;;;12.92;62.53;98837.34;4090398;28;20266;-55
2022/05/15 02:43:29;;;;;;;1.30;1.20;;;;;;;12.94;62.52;98832.41;4107330;28;20253;-55
2022/05/15 02:45:30;;;;;;;1.20;1.00;;;;;;;12.94;62.81;98826.06;4105865;28;20261;-55
2022/05/15 02:47:32;;;;;;;2.38;1.27;;;;;;;12.94;62.58;98824.16;4109247;28;20258;-55
2022/05/15 02:51:56;;;;;;;2.13;2.03;;;;;;;12.81;62.48;98832.78;4106861;28;20241;-54
2022/05/15 02:53:57;;;;;;;1.30;1.20;;;;;;;12.75;62.38;98838.47;4123454;28;20237;-55
2022/05/15 02:56:00;;;;;;;4.90;1.20;;;;;;;12.72;62.73;98828.00;4123366;28;20257;-55
2022/05/15 02:58:02;;;;;;;1.48;1.38;;;;;;;12.68;62.59;98833.19;4121204;28;20233;-55
2022/05/15 03:00:05;;;;;;;2.15;1.60;;;;;;;12.60;62.45;98827.31;4124330;28;20206;-54
2022/05/15 03:02:07;;;;;;;1.38;1.27;;;;;;;12.52;62.65;98825.84;4104372;28;20207;-55
2022/05/15 03:04:09;;;;;;;1.92;1.08;;;;;;;12.44;63.07;98829.00;4120384;28;20261;-55
2022/05/15 03:06:11;;;;;;;4.85;1.27;;;;;;;12.39;63.00;98830.88;4119427;28;20214;-55
2022/05/15 03:08:13;;;;;;;1.52;1.38;;;;;;;12.32;63.25;98827.47;4108582;28;20203;-55
2022/05/15 03:10:18;;;;;;;1.25;1.15;;;;;;;12.26;63.28;98832.09;4107376;28;20207;-55
2022/05/15 03:12:20;;;;;;;1.20;1.20;;;;;;;12.27;63.24;98825.50;4126237;28;20554;-55
2022/05/15 03:14:21;;;;;;;1.70;1.60;;;;;;;12.28;63.09;98829.06;4122996;28;21854;-55
2022/05/15 03:16:23;;;;;;;1.80;1.70;;;;;;;12.30;63.29;98829.66;4116473;28;20631;-55
2022/05/15 03:18:25;;;;;;;2.05;1.85;;;;;;;12.32;63.12;98827.47;4122894;28;20300;-55
2022/05/15 03:20:27;;;;;;;1.60;1.50;;;;;;;12.28;63.21;98835.41;4107207;28;20234;-55
2022/05/15 03:22:29;;;;;;;1.83;1.33;;;;;;;12.22;62.91;98836.41;4122708;28;20218;-55
2022/05/15 03:24:31;;;;;;;1.70;1.60;;;;;;;12.20;63.46;98827.59;4109822;28;20275;-55
2022/05/15 03:26:35;;;;;;;1.90;1.80;;;;;;;12.19;63.02;98825.94;4109078;28;20210;-55
2022/05/15 03:28:36;;;;;;;1.48;1.38;;;;;;;12.13;63.73;98821.47;4108046;28;20223;-55
2022/05/15 03:30:40;;;;;;;1.40;1.30;;;;;;;12.09;63.62;98831.28;4108819;28;20604;-57
2022/05/15 03:32:42;;;;;;;1.23;1.17;;;;;;;12.05;63.94;98835.59;4104778;28;20206;-56
2022/05/15 03:34:44;;;;;;;1.95;1.27;;;;;;;11.87;64.57;98832.28;4109675;28;20791;-56
2022/05/15 03:36:48;;;;;;;1.50;1.40;;;;;;;11.83;64.93;98840.19;4123780;28;20264;-54
2022/05/15 03:38:49;;;;;;;1.45;1.38;;;;;;;11.83;64.60;98834.69;4111034;28;20585;-56
2022/05/15 03:40:51;;;;;;;4.15;1.55;;;;;;;11.82;64.61;98835.78;4124699;28;20253;-57
2022/05/15 03:42:53;;;;;;;1.67;1.45;;;;;;;11.85;64.51;98831.72;4122941;28;20209;-57
2022/05/15 03:44:55;;;;;;;3.05;1.45;;;;;;;11.87;64.24;98833.13;4110912;28;20207;-55
2022/05/15 03:46:56;;;;;;;1.27;1.25;;;;;;;11.91;63.94;98828.78;4125283;28;20695;-60
2022/05/15 03:48:58;;;;;;;1.50;1.40;;;;;;;11.88;64.39;98832.06;4105688;28;20243;-60
2022/05/15 03:51:00;;;;;;;2.35;1.77;;;;;;;11.84;64.12;98825.41;4106816;28;20301;-57
2022/05/15 03:53:02;;;;;;;1.67;1.40;;;;;;;11.75;64.55;98824.16;4112554;28;20258;-60
2022/05/15 03:55:04;;;;;;;1.63;1.52;;;;;;;11.72;64.84;98824.66;4113982;28;20217;-56
2022/05/15 03:57:09;;;;;;;2.80;2.38;;;;;;;11.71;64.90;98824.91;4105442;28;20261;-57
2022/05/15 03:59:12;;;;;;;1.92;1.83;;;;;;;11.69;64.99;98830.66;4128280;28;20213;-59
2022/05/15 04:01:14;;;;;;;1.98;1.77;;;;;;;11.70;64.79;98821.34;4111438;28;20246;-56
2022/05/15 04:03:16;;;;;;;4.75;1.50;;;;;;;11.71;65.04;98828.47;4121618;28;20632;-58
2022/05/15 04:05:18;;;;;;;1.33;1.33;;;;;;;11.75;64.60;98824.16;4102707;28;20744;-59
2022/05/15 04:07:19;;;;;;;1.65;1.55;;;;;;;11.79;64.62;98825.34;4108525;28;20210;-57
2022/05/15 04:09:22;;;;;;;1.70;1.60;;;;;;;11.77;64.47;98819.25;4105953;28;20262;-57
2022/05/15 04:11:23;;;;;;;1.30;1.20;;;;;;;11.75;64.48;98815.94;4106507;28;20231;-56
2022/05/15 04:13:26;;;;;;;1.00;1.00;;;;;;;11.73;64.58;98809.88;4124160;28;20724;-57
2022/05/15 04:15:29;;;;;;;1.40;1.30;;;;;;;11.72;64.76;98810.13;4122406;28;20233;-59
2022/05/15 04:17:30;;;;;;;1.55;1.45;;;;;;;11.73;64.40;98814.53;4125880;28;20209;-57
2022/05/15 04:19:34;;;;;;;1.90;1.60;;;;;;;11.76;64.33;98817.59;4123784;28;20206;-57
2022/05/15 04:21:40;;;;;;;1.13;1.10;;;;;;;11.80;64.35;98813.28;4106045;28;20223;-58
2022/05/15 04:23:42;;;;;;;1.15;1.15;;;;;;;11.80;64.34;98815.19;4122901;28;20206;-56
2022/05/15 04:25:45;;;;;;;1.25;1.20;;;;;;;11.80;64.43;98816.03;4125270;28;20213;-57
2022/05/15 04:27:47;;;;;;;1.50;1.40;;;;;;;11.79;64.42;98814.38;4120639;28;20198;-58
2022/05/15 04:29:49;;;;;;;1.23;1.13;;;;;;;11.82;64.58;98813.00;4123104;28;20202;-62
2022/05/15 04:31:57;;;;;;;1.77;1.67;;;;;;;11.83;64.26;98821.00;4105813;28;20265;-57
2022/05/15 04:34:00;;;;;;;1.48;1.38;;;;;;;11.84;64.31;98828.13;4105979;28;20226;-57
2022/05/15 04:36:06;;;;;;;1.48;1.38;;;;;;;11.85;64.52;98823.50;4122577;28;20671;-57
2022/05/15 04:38:09;;;;;;;1.50;1.45;;;;;;;11.87;64.56;98816.69;4109513;28;20210;-58
2022/05/15 04:40:12;;;;;;;1.83;1.58;;;;;;;11.90;64.64;98826.31;4107636;28;20202;-57
2022/05/15 04:42:14;;;;;;;1.30;1.30;;;;;;;11.91;64.88;98827.97;4108195;28;20619;-58
2022/05/15 04:44:16;;;;;;;2.00;1.70;;;;;;;11.93;64.66;98826.66;4104529;28;20207;-55
2022/05/15 04:46:18;;;;;;;2.08;1.40;;;;;;;11.98;64.51;98823.97;4108685;28;20221;-58
2022/05/15 04:48:20;;;;;;;1.20;1.15;;;;;;;12.03;64.25;98832.28;4120874;28;20256;-57
2022/05/15 04:50:22;;;;;;;1.55;1.45;;;;;;;12.06;64.38;98831.78;4120659;28;20209;-56
2022/05/15 04:52:24;;;;;;;1.42;1.33;;;;;;;12.13;64.27;98837.09;4120773;28;20273;-56
2022/05/15 04:54:26;;;;;;;1.80;1.55;;;;;;;12.18;64.42;98835.22;4118969;28;20257;-59
2022/05/15 04:56:28;;;;;;;1.38;1.30;;;;;;;12.24;64.13;98834.22;4124824;28;20245;-56
2022/05/15 04:58:29;;;;;;;1.63;1.40;;;;;;;12.28;63.82;98843.63;4108580;28;20238;-58
2022/05/15 05:00:31;;;;;;;1.98;1.88;;;;;;;12.33;64.05;98843.72;4104923;28;21072;-57
2022/05/15 05:02:34;;;;;;;1.65;1.55;;;;;;;12.39;63.88;98844.59;4120437;28;20314;-59
2022/05/15 05:04:35;;;;;;;1.30;1.20;;;;;;;12.43;63.82;98843.81;4104925;28;20274;-57
2022/05/15 05:06:37;;;;;;;2.95;2.75;;;;;;;12.47;64.09;98842.25;4107152;28;20203;-57
2022/05/15 05:08:39;;;;;;;3.13;1.52;;;;;;;12.48;64.15;98834.81;4106339;28;20235;-55
2022/05/15 05:10:40;;;;;;;1.63;1.52;;;;;;;12.46;64.97;98835.09;4119085;28;20734;-57
2022/05/15 05:12:42;;;;;;;2.63;1.98;;;;;;;12.41;65.33;98836.94;4108950;28;20242;-56
2022/05/15 05:14:44;;;;;;;1.58;1.48;;;;;;;12.51;64.92;98834.34;4123109;28;20221;-57
2022/05/15 05:16:46;;;;;;;2.40;1.42;;;;;;;12.55;64.47;98841.81;4119603;28;20297;-57
2022/05/15 05:18:49;;;;;;;4.40;1.48;;;;;;;12.64;64.56;98839.44;4109285;28;20775;-58
2022/05/15 05:20:50;;;;;;;1.60;1.50;;;;;;;12.74;64.29;98839.56;4100733;28;20234;-56
2022/05/15 05:22:52;;;;;;;1.85;1.70;;;;;;;12.80;64.19;98833.88;4104823;28;20207;-58
2022/05/15 05:24:54;;;;;;;1.42;1.33;;;;;;;12.90;63.79;98839.47;4121617;28;20213;-58
2022/05/15 05:26:56;;;;;;;2.22;1.48;;;;;;;13.00;63.49;98839.66;4106104;28;20250;-56
2022/05/15 05:28:58;;;;;;;3.60;1.42;;;;;;;13.09;64.65;98843.59;4105999;28;20728;-58
2022/05/15 05:31:00;;;;;;;1.40;1.30;;;;;;;13.10;64.78;98845.25;4106850;28;20258;-58
2022/05/15 05:33:02;;;;;;;1.75;1.65;;;;;;;13.20;64.96;98848.13;4106584;28;20210;-57
2022/05/15 05:35:04;;;;;;;1.70;1.60;;;;;;;13.28;65.58;98835.81;4119894;28;20353;-57
2022/05/15 05:37:06;;;;;;;1.35;1.25;;;;;;;13.42;64.75;98842.53;4121388;28;20202;-56
2022/05/15 05:39:08;;;;;;;2.13;1.83;;;;;;;13.53;64.25;98839.66;4121139;28;20296;-55
2022/05/15 05:41:10;;;;;;;1.60;1.50;;;;;;;13.57;64.67;98839.97;4122094;28;20233;-57
2022/05/15 05:43:11;;;;;;;2.53;2.33;;;;;;;13.61;63.99;98836.41;4102414;28;20290;-57
2022/05/15 05:45:14;;;;;;;1.60;1.50;;;;;;;13.85;64.44;98843.25;4106883;28;20684;-56
2022/05/15 05:47:34;;;;;;;1.60;1.50;;;;;;;13.98;64.40;98841.94;4105418;28;20210;-58
2022/05/15 05:49:36;;;;;;;1.92;1.83;;;;;;;14.20;63.81;98840.78;4106076;28;20238;-57
2022/05/15 05:51:38;;;;;;;1.45;1.35;;;;;;;14.36;64.56;98848.00;4110154;28;20230;-56
2022/05/15 05:53:40;;;;;;;2.40;2.10;;;;;;;14.57;63.97;98847.03;4107542;28;20644;-58
2022/05/15 05:55:42;;;;;;;1.50;1.40;;;;;;;14.76;61.86;98845.47;4126279;28;20686;-56
2022/05/15 05:57:45;;;;;;;3.10;1.25;;;;;;;14.95;61.54;98843.06;4124790;28;20202;-57
2022/05/15 05:59:46;;;;;;;1.80;1.27;;;;;;;15.07;61.56;98836.22;4106542;28;20203;-57
2022/05/15 06:01:48;;;;;;;1.58;1.48;;;;;;;15.21;60.74;98842.03;4113314;28;20284;-56
2022/05/15 06:06:10;;;;;;;1.23;1.23;;;;;;;15.47;59.41;98846.56;4108685;28;20226;-56
2022/05/15 06:08:13;;;;;;;1.17;1.08;;;;;;;15.58;58.53;98843.56;4100181;28;20272;-56
2022/05/15 06:10:15;;;;;;;1.30;1.20;;;;;;;15.67;59.14;98835.53;4122250;28;20209;-55
2022/05/15 06:12:20;;;;;;;1.33;1.10;;;;;;;15.69;58.88;98836.94;4125033;28;20679;-54
2022/05/15 06:14:22;;;;;;;3.08;1.40;;;;;;;15.86;59.28;98834.75;4121671;28;20316;-55
2022/05/15 06:16:25;;;;;;;6.53;1.35;;;;;;;15.97;58.40;98841.88;4102478;28;20487;-54
2022/05/15 06:18:27;;;;;;;1.88;1.23;;;;;;;16.05;58.15;98833.06;4121398;28;20237;-55
2022/05/15 06:20:29;;;;;;;1.20;1.10;;;;;;;16.14;57.95;98833.31;4122676;28;20290;-55
2022/05/15 06:22:30;;;;;;;1.20;1.00;;;;;;;16.26;58.05;98837.47;4105686;28;20210;-55
2022/05/15 06:24:32;;;;;;;1.38;0.90;;;;;;;16.31;58.73;98843.00;4102717;28;20261;-57
2022/05/15 06:26:34;;;;;;;1.33;1.23;;;;;;;16.37;58.13;98839.09;4123338;28;20199;-56
2022/05/15 06:28:36;;;;;;;1.10;1.05;;;;;;;16.45;58.01;98838.56;4098509;28;20348;-55
2022/05/15 06:30:38;;;;;;;1.42;1.10;;;;;;;16.35;58.03;98849.59;4120361;28;20229;-56
2022/05/15 06:32:39;;;;;;;1.42;0.98;;;;;;;16.49;57.79;98839.66;4125533;28;20261;-54
2022/05/15 06:34:41;;;;;;;1.40;1.25;;;;;;;16.63;57.49;98840.72;4110695;28;20218;-54
2022/05/15 06:36:43;;;;;;;0.90;0.90;;;;;;;16.77;57.14;98847.28;4110513;28;20520;-55
2022/05/15 06:38:45;;;;;;;0.80;0.80;;;;;;;16.87;57.00;98844.50;4107217;28;20206;-57
2022/05/15 06:40:46;;;;;;;0.95;0.95;;;;;;;17.01;56.80;98848.31;4109288;28;20230;-54
2022/05/15 06:42:48;;;;;;;2.97;1.77;;;;;;;17.09;56.88;98850.47;4120364;28;20569;-57
2022/05/15 06:44:50;;;;;;;1.77;1.67;;;;;;;17.12;56.43;98845.22;4108468;28;20215;-53
2022/05/15 06:46:52;;;;;;;1.30;1.10;;;;;;;17.26;56.88;98834.38;4123311;28;20210;-56
2022/05/15 06:48:54;;;;;;;1.27;1.23;;;;;;;17.44;56.97;98836.50;4100700;28;20706;-55
2022/05/15 06:50:56;;;;;;;1.40;1.27;;;;;;;17.50;56.87;98836.19;4101303;28;20238;-55
2022/05/15 06:52:57;;;;;;;1.02;0.93;;;;;;;17.58;56.51;98843.06;4107844;28;20207;-55
2022/05/15 06:54:59;;;;;;;1.17;0.85;;;;;;;17.48;57.20;98838.41;4107184;28;20317;-54
2022/05/15 06:59:21;;;;;;;1.88;0.90;;;;;;;17.52;57.29;98847.78;4105596;28;20215;-57
2022/05/15 07:01:23;;;;;;;1.15;1.05;;;;;;;17.60;57.32;98841.63;4102701;28;20239;-56
2022/05/15 07:03:25;;;;;;;1.00;0.90;;;;;;;17.68;57.72;98845.75;4122935;28;20300;-54
2022/05/15 07:05:30;;;;;;;2.75;1.25;;;;;;;17.77;57.82;98844.00;4106059;28;20203;-54
2022/05/15 07:07:32;;;;;;;1.10;1.00;;;;;;;18.01;57.45;98847.69;4122935;28;20260;-55
2022/05/15 07:09:35;;;;;;;1.10;1.00;;;;;;;18.25;56.84;98848.59;4101791;28;20262;-57
2022/05/15 07:11:37;;;;;;;2.72;0.88;;;;;;;18.35;56.74;98842.97;4119211;28;20226;-55
2022/05/15 07:13:39;;;;;;;0.85;0.85;;;;;;;18.66;56.92;98842.34;4122312;28;20214;-57
2022/05/15 07:15:41;;;;;;;1.30;1.20;;;;;;;18.78;55.12;98840.00;4120417;28;20674;-56
2022/05/15 07:17:43;;;;;;;1.20;1.10;;;;;;;18.60;54.42;98840.78;4118511;28;21007;-56
2022/05/15 07:19:44;;;;;;;1.38;0.90;;;;;;;18.87;55.57;98834.66;4123035;28;20237;-54
2022/05/15 07:21:46;;;;;;;1.65;0.80;;;;;;;19.05;55.28;98839.44;4107569;28;20281;-55
2022/05/15 07:23:48;;;;;;;1.50;1.27;;;;;;;18.98;54.83;98841.72;4110422;28;20222;-53
2022/05/15 07:25:50;;;;;;;1.77;1.15;;;;;;;19.01;52.82;98835.56;4121854;28;20202;-54
2022/05/15 07:27:52;;;;;;;3.65;0.88;;;;;;;18.90;53.13;98839.59;4123718;28;20866;-53
2022/05/15 07:29:53;;;;;;;1.85;1.52;;;;;;;18.98;54.13;98838.97;4122067;28;21557;-56
2022/05/15 07:31:56;;;;;;;1.33;1.00;;;;;;;19.17;52.90;98842.59;4122128;28;20367;-54
2022/05/15 07:33:58;;;;;;;1.15;1.02;;;;;;;19.41;53.07;98832.28;4103575;28;20211;-52
2022/05/15 07:36:00;;;;;;;0.80;0.80;;;;;;;19.69;52.94;98831.31;4102980;28;20281;-55
2022/05/15 07:38:02;;;;;;;2.53;1.05;;;;;;;19.83;52.39;98837.75;4105993;28;20756;-54
2022/05/15 07:40:04;;;;;;;1.30;1.02;;;;;;;19.92;50.60;98830.41;4122724;28;20241;-55
2022/05/15 07:42:06;;;;;;;0.90;0.90;;;;;;;20.18;51.28;98828.88;4123198;28;20218;-56
2022/05/15 07:44:08;;;;;;;1.85;0.90;;;;;;;20.65;51.31;98823.00;4123534;28;20678;-55
2022/05/15 07:46:10;;;;;;;1.15;0.80;;;;;;;20.59;49.10;98835.34;4121588;28;20261;-55
2022/05/15 07:48:12;;;;;;;1.77;1.50;;;;;;;20.76;49.84;98832.78;4111161;28;20206;-53
2022/05/15 07:50:14;;;;;;;2.05;1.23;;;;;;;20.73;48.82;98831.47;4107463;28;20214;-53
2022/05/15 07:52:17;;;;;;;1.10;1.00;;;;;;;20.99;50.89;98832.59;4106652;28;20252;-56
2022/05/15 07:54:20;;;;;;;1.73;0.90;;;;;;;21.06;48.90;98829.44;4108982;28;20253;-54
2022/05/15 07:56:22;;;;;;;0.80;0.80;;;;;;;21.23;48.52;98824.06;4110017;28;20309;-55
2022/05/15 07:58:28;;;;;;;0.57;0.57;;;;;;;21.43;48.08;98824.41;4122910;28;20288;-55
2022/05/15 08:00:30;;;;;;;1.77;1.40;;;;;;;21.39;47.97;98822.56;4107759;28;20230;-54
2022/05/15 08:02:31;;;;;;;1.40;1.25;;;;;;;21.60;48.63;98818.19;4122855;28;20734;-54
2022/05/15 08:08:00;;;;;;;0.90;0.90;;;;;;;21.49;47.77;98813.97;4110603;28;20212;-56
2022/05/15 08:09:16;;;;;;;1.42;1.17;;;;;;;21.81;48.41;98819.38;4110830;28;20199;-53
2022/05/15 08:11:18;;;;;;;1.00;1.00;;;;;;;21.42;48.07;98810.78;4124514;28;20218;-53
2022/05/15 08:13:23;;;;;;;2.45;1.27;;;;;;;21.52;47.30;98807.78;4104106;28;20207;-53
2022/05/15 08:15:25;;;;;;;0.82;0.75;;;;;;;21.85;48.33;98814.84;4126701;28;20221;-53
2022/05/15 08:17:27;;;;;;;1.05;0.85;;;;;;;21.82;47.40;98804.31;4127944;28;20241;-53
2022/05/15 08:24:09;;;;;;;0.80;0.80;;;;;;;22.16;46.38;98807.34;4114369;28;20217;-53
2022/05/15 08:26:11;;;;;;;1.60;0.90;;;;;;;22.54;46.31;98800.22;4096008;28;20290;-53
2022/05/15 08:28:14;;;;;;;0.57;0.57;;;;;;;22.77;46.66;98799.84;4129728;28;20201;-53
2022/05/15 08:30:15;;;;;;;1.10;1.02;;;;;;;22.68;45.85;98798.16;4128726;28;20213;-54
2022/05/15 08:32:18;;;;;;;0.60;0.60;;;;;;;22.75;44.86;98801.31;4127869;28;20212;-53
2022/05/15 08:34:20;;;;;;;0.65;0.65;;;;;;;23.02;45.67;98801.06;4112441;28;20241;-53
2022/05/15 08:36:21;;;;;;;1.15;1.05;;;;;;;23.27;45.62;98794.78;4112453;28;20770;-54
2022/05/15 08:38:23;;;;;;;0.70;0.68;;;;;;;23.34;43.73;98797.91;4100176;28;20780;-54
2022/05/15 08:40:27;;;;;;;0.60;0.60;;;;;;;23.08;42.71;98791.41;4110820;28;20712;-54
2022/05/15 08:42:50;;;;;;;2.65;0.90;;;;;;;22.94;44.11;98796.28;4109542;28;20629;-54
2022/05/15 08:44:56;;;;;;;0.65;0.40;;;;;;;23.16;43.29;98796.25;4125495;28;20305;-54
2022/05/15 08:47:01;;;;;;;0.60;0.60;;;;;;;23.29;44.13;98796.09;4127210;28;20244;-53
2022/05/15 08:49:36;;;;;;;0.95;0.75;;;;;;;23.46;43.60;98789.72;4127563;28;20252;-53
2022/05/15 08:51:56;;;;;;;0.80;0.77;;;;;;;23.56;43.25;98789.41;4109766;28;20233;-53
2022/05/15 08:54:00;;;;;;;0.55;0.55;;;;;;;23.52;43.11;98788.41;4094781;28;20218;-54
2022/05/15 08:56:07;;;;;;;1.38;0.90;;;;;;;23.78;42.38;98784.47;4126529;28;20283;-53
2022/05/15 08:58:35;;;;;;;0.57;0.57;;;;;;;24.18;42.63;98791.53;4109183;28;20207;-54
2022/05/15 09:00:42;;;;;;;0.73;0.70;;;;;;;24.29;42.65;98782.47;4118886;28;20658;-53
2022/05/15 09:02:44;;;;;;;0.85;0.85;;;;;;;24.40;41.84;98789.34;4125746;28;21099;-54
2022/05/15 09:04:46;;;;;;;0.60;0.60;;;;;;;24.25;42.20;98791.84;4127103;28;20697;-53
2022/05/15 09:07:00;;;;;;;0.73;0.73;;;;;;;24.20;41.57;98778.84;4092298;28;20207;-53
2022/05/15 09:09:17;;;;;;;0.57;0.57;;;;;;;24.11;41.06;98792.03;4124356;28;20240;-53
2022/05/15 09:11:55;;;;;;;1.33;0.60;;;;;;;24.05;38.76;98782.19;4106662;28;20251;-53
2022/05/15 09:14:23;;;;;;;1.02;0.50;;;;;;;24.05;40.99;98776.59;4097610;28;20206;-53
2022/05/15 09:16:27;;;;;;;0.65;0.45;;;;;;;24.35;40.75;98783.94;4107559;28;20715;-53
2022/05/15 09:18:33;;;;;;;0.63;0.63;;;;;;;24.55;41.90;98788.81;4110733;28;20211;-53
2022/05/15 09:20:54;;;;;;;0.77;0.77;;;;;;;24.49;40.71;98787.38;4123982;28;20293;-53
2022/05/15 09:23:07;;;;;;;0.80;0.80;;;;;;;24.76;39.35;98783.34;4125242;28;20205;-52
2022/05/15 09:25:21;;;;;;;0.70;0.50;;;;;;;24.81;38.74;98788.75;4111314;28;20268;-53
2022/05/15 09:27:25;;;;;;;0.75;0.70;;;;;;;24.31;37.67;98780.16;4108645;28;20210;-53
2022/05/15 09:29:28;;;;;;;0.55;0.55;;;;;;;24.65;38.12;98779.28;4111457;28;20222;-53
2022/05/15 09:31:35;;;;;;;0.50;0.50;;;;;;;24.65;38.61;98774.47;4123099;28;20230;-53
2022/05/15 09:33:44;;;;;;;0.50;0.50;;;;;;;25.07;38.67;98787.44;4108958;28;20260;-52
2022/05/15 09:35:46;;;;;;;3.65;1.75;;;;;;;24.88;38.52;98773.09;4105476;28;20222;-55
2022/05/15 09:40:14;;;;;;;0.70;0.50;;;;;;;24.11;36.94;98774.44;4103872;28;20290;-53
2022/05/15 09:44:36;;;;;;;1.33;0.60;;;;;;;24.37;35.24;98773.22;4106153;28;20206;-53
2022/05/15 09:46:40;;;;;;;0.80;0.60;;;;;;;24.34;36.27;98771.09;4125047;28;20228;-54
2022/05/15 09:48:55;;;;;;;0.60;0.57;;;;;;;24.52;37.04;98774.69;4110166;28;20210;-53
2022/05/15 09:51:00;;;;;;;0.70;0.50;;;;;;;24.85;38.31;98768.13;4110562;28;20222;-53
2022/05/15 09:53:06;;;;;;;0.45;0.40;;;;;;;24.79;36.01;98761.06;4126101;28;20206;-53
2022/05/15 09:55:15;;;;;;;0.30;0.30;;;;;;;25.09;36.54;98756.31;4127438;28;20691;-53
2022/05/15 09:57:24;;;;;;;1.38;0.65;;;;;;;25.19;35.24;98762.34;4109859;28;20202;-53
2022/05/15 09:59:27;;;;;;;2.13;0.70;;;;;;;25.51;37.82;98764.47;4111239;28;20276;-52
2022/05/15 10:01:57;;;;;;;0.60;0.47;;;;;;;25.72;36.11;98759.69;4124460;28;20229;-53